Carnival Miracle — H3VS — position and weather

sailwx.info

Track history (hours):
 
Tides and Currents Weather Stations Pressure Air Temp Water Temp Dewpoint Dewpoint Depression Visibility Wind Speed Wind Dir Waves Ship Positions

Carnival Miracle

Operator: Carnival Cruise Lines

Last reported at 2017-Nov-18 13:58 UTC. Time now 2017-Nov-18 14:19 UTC.
Position N 33°38' W 118°10'.

Type: Ship. MMSI: 35437000.

Date/timePositionNaut miles runAvg speedWind from/ knotsBaromVisibWave heightAir tempDewpointWater temp
2017-Nov-18 13:58N 33°38' W 118°10'510.1
2017-Nov-18 13:30N 33°34' W 118°09'611.3
2017-Nov-18 13:01N 33°29' W 118°06'1213.0
2017-Nov-18 12:06N 33°18' W 118°01'113.7
2017-Nov-18 12:00N 33°16' W 118°00'713.5
2017-Nov-18 11:31N 33°11' W 117°56'713.4
2017-Nov-18 11:01N 33°04' W 117°54'714.3
2017-Nov-18 10:30N 32°57' W 117°51'917.1
2017-Nov-18 10:00N 32°49' W 117°48'917.2
2017-Nov-18 09:30N 32°41' W 117°46'917.4
2017-Nov-18 08:58N 32°32' W 117°42'917.4
2017-Nov-18 08:27N 32°24' W 117°38'817.4
2017-Nov-18 08:00N 32°17' W 117°35'9616.9
2017-Nov-18 02:21N 30°48' W 116°53'28619.9
2017-Nov-17 12:00N 26°36' W 114°18'46219.2 030 / 91015.010.8 20.020.022.0
2017-Nov-16 12:00N 21°42' W 107°48'143 5.9 340 / 61012.010.8 27.024.329.0
2017-Nov-15 12:00N 20°30' W 105°36'169 7.0 110 / 121012.010.8 27.024.330.0
2017-Nov-14 12:00N 23°00' W 107°00'25410.6 350 / 181012.010.8 28.026.729.0
2017-Nov-13 12:00N 23°54' W 111°30'22022.0 010 / 121018.010.8 24.022.626.0
2017-Nov-13 01:58N 26°31' W 114°20'1220.1
2017-Nov-13 01:21N 26°41' W 114°29'720.2
2017-Nov-13 01:01N 26°46' W 114°34'1020.0
2017-Nov-13 00:30N 26°54' W 114°41'1020.0
2017-Nov-13 00:00N 27°01' W 114°49'1020.0
2017-Nov-12 23:30N 27°09' W 114°56'1019.7
2017-Nov-12 23:00N 27°17' W 115°03'1020.1
2017-Nov-12 22:30N 27°24' W 115°10'1020.1
2017-Nov-12 22:00N 27°32' W 115°17'1019.9
2017-Nov-12 21:30N 27°40' W 115°25'1019.9
2017-Nov-12 21:00N 27°47' W 115°32'1020.1
2017-Nov-12 20:30N 27°55' W 115°39'1020.4
2017-Nov-12 20:00N 28°03' W 115°47'1020.6
2017-Nov-12 19:30N 28°12' W 115°52'1020.7
2017-Nov-12 19:00N 28°22' W 115°56'3320.2
2017-Nov-12 17:23N 28°52' W 116°09'820.0
2017-Nov-12 17:00N 28°59' W 116°12'1019.7
2017-Nov-12 16:30N 29°09' W 116°16'1019.8
2017-Nov-12 15:59N 29°18' W 116°20'919.7
2017-Nov-12 15:30N 29°27' W 116°24'2419.8
2017-Nov-12 14:18N 29°49' W 116°34'1813.8
2017-Nov-12 13:00N 30°06' W 116°42'8848.9 330 / 181018.010.8 19.015.919.0
2017-Nov-12 12:59N 30°14' W 116°44'1320.2
2017-Nov-12 12:21N 30°26' W 116°50'3719.9
2017-Nov-12 10:28N 31°01' W 117°05'1020.2
2017-Nov-12 10:00N 31°10' W 117°09'1120.4
2017-Nov-12 09:26N 31°21' W 117°13'2320.6
2017-Nov-12 08:20N 31°42' W 117°23'1120.5
2017-Nov-12 07:48N 31°52' W 117°27'2520.3
2017-Nov-12 06:36N 32°15' W 117°38'719.8
2017-Nov-12 06:13N 32°22' W 117°41'419.7
2017-Nov-12 06:00N 32°26' W 117°43'1019.7
2017-Nov-12 05:30N 32°35' W 117°47'1019.9
2017-Nov-12 05:00N 32°45' W 117°50'1020.0
2017-Nov-12 04:30N 32°55' W 117°53'1020.0
2017-Nov-12 04:00N 33°04' W 117°57'1020.0
2017-Nov-12 03:30N 33°13' W 118°02'1419.9
2017-Nov-12 02:49N 33°26' W 118°09'517.4
2017-Nov-12 02:30N 33°31' W 118°11'713.8
2017-Nov-12 02:00N 33°37' W 118°13'611.2
2017-Nov-12 01:28N 33°43' W 118°11'2 1.5
2017-Nov-12 00:20N 33°45' W 118°11'6 0.6
2017-Nov-11 13:58N 33°39' W 118°10'611.9
2017-Nov-11 13:27N 33°33' W 118°09'612.4
2017-Nov-11 13:01N 33°28' W 118°06'712.5
2017-Nov-11 12:27N 33°22' W 118°03'613.8
2017-Nov-11 12:00N 33°16' W 118°00'714.6
2017-Nov-11 11:30N 33°09' W 117°56'918.1
2017-Nov-11 11:01N 33°01' W 117°53'918.3
2017-Nov-11 10:30N 32°52' W 117°50'918.1
2017-Nov-11 10:00N 32°44' W 117°46'918.1
2017-Nov-11 09:31N 32°35' W 117°43'918.4
2017-Nov-11 09:00N 32°26' W 117°39'3919.3
2017-Nov-11 06:59N 31°50' W 117°22'1018.7
2017-Nov-11 06:27N 31°41' W 117°18'4818.5
2017-Nov-11 03:51N 30°56' W 116°57'1718.9
2017-Nov-11 02:56N 30°40' W 116°50'3518.9
2017-Nov-11 01:05N 30°07' W 116°35'219.2
2017-Nov-11 00:58N 30°05' W 116°34'919.3
2017-Nov-11 00:30N 29°57' W 116°30'1319.2
2017-Nov-10 23:50N 29°45' W 116°25'819.2
2017-Nov-10 23:25N 29°38' W 116°21'1219.4
2017-Nov-10 22:48N 29°27' W 116°16'3019.3
2017-Nov-10 21:15N 28°59' W 116°03'1219.2
2017-Nov-10 20:39N 28°48' W 115°59'10119.2
2017-Nov-10 15:22N 27°22' W 114°57'5021.0
2017-Nov-10 13:00N 26°42' W 114°24'49019.6 340 / 201013.010.8 20.018.522.0
2017-Nov-09 12:00N 21°30' W 107°30'   010 / 101011.010.8 28.025.330.0
Track history (hours):
 
Tides and Currents Weather Stations Pressure Air Temp Water Temp Dewpoint Dewpoint Depression Visibility Wind Speed Wind Dir Waves Ship Positions

Carnival Miracle

Operator: Carnival Cruise Lines

Last reported at 2017-Nov-18 13:58 UTC. Time now 2017-Nov-18 14:19 UTC.
Position N 33°38' W 118°10'.

Type: Ship. MMSI: 35437000.

Date/timePositionNaut miles runAvg speedWind from/ knotsBaromVisibWave heightAir tempDewpointWater temp
2017-Nov-18 13:58N 33°38' W 118°10'510.1
2017-Nov-18 13:30N 33°34' W 118°09'611.3
2017-Nov-18 13:01N 33°29' W 118°06'1213.0
2017-Nov-18 12:06N 33°18' W 118°01'113.7
2017-Nov-18 12:00N 33°16' W 118°00'713.5
2017-Nov-18 11:31N 33°11' W 117°56'713.4
2017-Nov-18 11:01N 33°04' W 117°54'714.3
2017-Nov-18 10:30N 32°57' W 117°51'917.1
2017-Nov-18 10:00N 32°49' W 117°48'917.2
2017-Nov-18 09:30N 32°41' W 117°46'917.4
2017-Nov-18 08:58N 32°32' W 117°42'917.4
2017-Nov-18 08:27N 32°24' W 117°38'817.4
2017-Nov-18 08:00N 32°17' W 117°35'9616.9
2017-Nov-18 02:21N 30°48' W 116°53'28619.9
2017-Nov-17 12:00N 26°36' W 114°18'46219.2 030 / 91015.010.8 20.020.022.0
2017-Nov-16 12:00N 21°42' W 107°48'143 5.9 340 / 61012.010.8 27.024.329.0
2017-Nov-15 12:00N 20°30' W 105°36'169 7.0 110 / 121012.010.8 27.024.330.0
2017-Nov-14 12:00N 23°00' W 107°00'25410.6 350 / 181012.010.8 28.026.729.0
2017-Nov-13 12:00N 23°54' W 111°30'22022.0 010 / 121018.010.8 24.022.626.0
2017-Nov-13 01:58N 26°31' W 114°20'1220.1
2017-Nov-13 01:21N 26°41' W 114°29'720.2
2017-Nov-13 01:01N 26°46' W 114°34'1020.0
2017-Nov-13 00:30N 26°54' W 114°41'1020.0
2017-Nov-13 00:00N 27°01' W 114°49'1020.0
2017-Nov-12 23:30N 27°09' W 114°56'1019.7
2017-Nov-12 23:00N 27°17' W 115°03'1020.1
2017-Nov-12 22:30N 27°24' W 115°10'1020.1
2017-Nov-12 22:00N 27°32' W 115°17'1019.9
2017-Nov-12 21:30N 27°40' W 115°25'1019.9
2017-Nov-12 21:00N 27°47' W 115°32'1020.1
2017-Nov-12 20:30N 27°55' W 115°39'1020.4
2017-Nov-12 20:00N 28°03' W 115°47'1020.6
2017-Nov-12 19:30N 28°12' W 115°52'1020.7
2017-Nov-12 19:00N 28°22' W 115°56'3320.2
2017-Nov-12 17:23N 28°52' W 116°09'820.0
2017-Nov-12 17:00N 28°59' W 116°12'1019.7
2017-Nov-12 16:30N 29°09' W 116°16'1019.8
2017-Nov-12 15:59N 29°18' W 116°20'919.7
2017-Nov-12 15:30N 29°27' W 116°24'2419.8
2017-Nov-12 14:18N 29°49' W 116°34'1813.8
2017-Nov-12 13:00N 30°06' W 116°42'8848.9 330 / 181018.010.8 19.015.919.0
2017-Nov-12 12:59N 30°14' W 116°44'1320.2
2017-Nov-12 12:21N 30°26' W 116°50'3719.9
2017-Nov-12 10:28N 31°01' W 117°05'1020.2
2017-Nov-12 10:00N 31°10' W 117°09'1120.4
2017-Nov-12 09:26N 31°21' W 117°13'2320.6
2017-Nov-12 08:20N 31°42' W 117°23'1120.5
2017-Nov-12 07:48N 31°52' W 117°27'2520.3
2017-Nov-12 06:36N 32°15' W 117°38'719.8
2017-Nov-12 06:13N 32°22' W 117°41'419.7
2017-Nov-12 06:00N 32°26' W 117°43'1019.7
2017-Nov-12 05:30N 32°35' W 117°47'1019.9
2017-Nov-12 05:00N 32°45' W 117°50'1020.0
2017-Nov-12 04:30N 32°55' W 117°53'1020.0
2017-Nov-12 04:00N 33°04' W 117°57'1020.0
2017-Nov-12 03:30N 33°13' W 118°02'1419.9
2017-Nov-12 02:49N 33°26' W 118°09'517.4
2017-Nov-12 02:30N 33°31' W 118°11'713.8
2017-Nov-12 02:00N 33°37' W 118°13'611.2
2017-Nov-12 01:28N 33°43' W 118°11'2 1.5
2017-Nov-12 00:20N 33°45' W 118°11'6 0.6
2017-Nov-11 13:58N 33°39' W 118°10'611.9
2017-Nov-11 13:27N 33°33' W 118°09'612.4
2017-Nov-11 13:01N 33°28' W 118°06'712.5
2017-Nov-11 12:27N 33°22' W 118°03'613.8
2017-Nov-11 12:00N 33°16' W 118°00'714.6
2017-Nov-11 11:30N 33°09' W 117°56'918.1
2017-Nov-11 11:01N 33°01' W 117°53'918.3
2017-Nov-11 10:30N 32°52' W 117°50'918.1
2017-Nov-11 10:00N 32°44' W 117°46'918.1
2017-Nov-11 09:31N 32°35' W 117°43'918.4
2017-Nov-11 09:00N 32°26' W 117°39'3919.3
2017-Nov-11 06:59N 31°50' W 117°22'1018.7
2017-Nov-11 06:27N 31°41' W 117°18'4818.5
2017-Nov-11 03:51N 30°56' W 116°57'1718.9
2017-Nov-11 02:56N 30°40' W 116°50'3518.9
2017-Nov-11 01:05N 30°07' W 116°35'219.2
2017-Nov-11 00:58N 30°05' W 116°34'919.3
2017-Nov-11 00:30N 29°57' W 116°30'1319.2
2017-Nov-10 23:50N 29°45' W 116°25'819.2
2017-Nov-10 23:25N 29°38' W 116°21'1219.4
2017-Nov-10 22:48N 29°27' W 116°16'3019.3
2017-Nov-10 21:15N 28°59' W 116°03'1219.2
2017-Nov-10 20:39N 28°48' W 115°59'10119.2
2017-Nov-10 15:22N 27°22' W 114°57'5021.0
2017-Nov-10 13:00N 26°42' W 114°24'49019.6 340 / 201013.010.8 20.018.522.0
2017-Nov-09 12:00N 21°30' W 107°30'   010 / 101011.010.8 28.025.330.0

Dump ship's entire track history